Time,TemperatureF,DewpointF,PressureIn,WindDirection,WindDirectionDegrees,WindSpeedMPH,WindSpeedGustMPH,Humidity,HourlyPrecipIn,Conditions,Clouds,dailyrainin,SoftwareType,DateUTC
2013-06-03 00:00:00,48.9,40.6,30.02,WSW,248,0.0,0.0,73,0.00,CLR,CLR,0.00,WeatherDisplay:10.37,2013-06-03 05:00:00,
2013-06-03 00:05:00,48.7,40.5,30.02,WSW,248,0.0,0.0,73,0.00,CLR,CLR,0.00,WeatherDisplay:10.37,2013-06-03 05:05:00,
2013-06-03 00:10:00,48.4,40.5,30.02,WSW,248,0.0,0.0,74,0.00,CLR,CLR,0.00,WeatherDisplay:10.37,2013-06-03 05:10:00,
2013-06-03 00:15:00,48.0,40.1,30.02,West,270,0.0,0.0,74,0.00,CLR,CLR,0.00,WeatherDisplay:10.37,2013-06-03 05:15:00,
2013-06-03 00:20:00,47.8,40.3,30.01,WSW,248,0.0,0.0,75,0.00,CLR,CLR,0.00,WeatherDisplay:10.37,2013-06-03 05:20:00,
2013-06-03 00:25:00,47.5,39.9,30.02,WSW,248,0.0,0.0,75,0.00,CLR,CLR,0.00,WeatherDisplay:10.37,2013-06-03 05:25:00,
2013-06-03 00:30:00,47.3,39.8,30.02,WSW,248,0.0,0.0,75,0.00,CLR,CLR,0.00,WeatherDisplay:10.37,2013-06-03 05:30:00,
2013-06-03 00:36:00,47.1,39.6,30.02,WSW,248,0.0,0.0,75,0.00,CLR,CLR,0.00,WeatherDisplay:10.37,2013-06-03 05:36:00,
2013-06-03 00:41:00,47.1,39.9,30.02,WSW,248,0.0,0.0,76,0.00,CLR,CLR,0.00,WeatherDisplay:10.37,2013-06-03 05:41:00,
2013-06-03 00:46:00,46.8,39.6,30.03,WSW,248,0.0,0.0,76,0.00,CLR,CLR,0.00,WeatherDisplay:10.37,2013-06-03 05:46:00,
2013-06-03 00:51:00,46.6,39.4,30.02,WSW,248,0.0,0.0,76,0.00,CLR,CLR,0.00,WeatherDisplay:10.37,2013-06-03 05:51:00,
2013-06-03 00:56:00,46.4,39.6,30.02,WSW,248,0.0,0.0,77,0.00,CLR,CLR,0.00,WeatherDisplay:10.37,2013-06-03 05:56:00,
2013-06-03 01:01:00,46.2,39.7,30.02,WSW,248,0.0,0.0,78,0.00,CLR,CLR,0.00,WeatherDisplay:10.37,2013-06-03 06:01:00,
2013-06-03 01:06:00,46.2,39.7,30.03,WSW,248,0.0,0.0,78,0.00,CLR,CLR,0.00,WeatherDisplay:10.37,2013-06-03 06:06:00,
2013-06-03 01:12:00,46.0,39.6,30.02,WSW,248,0.0,0.0,78,0.00,CLR,CLR,0.00,WeatherDisplay:10.37,2013-06-03 06:12:00,
2013-06-03 01:17:00,46.0,39.6,30.03,WSW,248,0.0,0.0,78,0.00,CLR,CLR,0.00,WeatherDisplay:10.37,2013-06-03 06:17:00,
2013-06-03 01:22:00,45.7,39.2,30.03,WSW,248,0.0,0.0,78,0.00,CLR,CLR,0.00,WeatherDisplay:10.37,2013-06-03 06:22:00,
2013-06-03 01:27:00,45.7,39.5,30.03,WSW,248,0.0,1.2,79,0.00,CLR,CLR,0.00,WeatherDisplay:10.37,2013-06-03 06:27:00,
2013-06-03 01:32:00,45.5,39.4,30.02,West,270,0.0,0.0,79,0.00,CLR,CLR,0.00,WeatherDisplay:10.37,2013-06-03 06:32:00,
2013-06-03 01:37:00,45.3,39.2,30.02,WSW,248,0.0,0.0,79,0.00,CLR,CLR,0.00,WeatherDisplay:10.37,2013-06-03 06:37:00,
2013-06-03 01:42:00,45.1,39.0,30.02,WSW,248,0.2,1.2,79,0.00,CLR,CLR,0.00,WeatherDisplay:10.37,2013-06-03 06:42:00,
2013-06-03 01:47:00,45.0,39.2,30.03,SW,225,0.0,0.0,80,0.00,CLR,CLR,0.00,WeatherDisplay:10.37,2013-06-03 06:47:00,
2013-06-03 01:52:00,44.8,39.0,30.02,WNW,292,0.0,0.0,80,0.00,CLR,CLR,0.00,WeatherDisplay:10.37,2013-06-03 06:52:00,
2013-06-03 01:58:00,44.4,39.0,30.02,WNW,292,0.0,0.0,81,0.00,CLR,CLR,0.00,WeatherDisplay:10.37,2013-06-03 06:58:00,
2013-06-03 02:03:00,44.4,39.0,30.02,WNW,292,0.0,0.0,81,0.00,CLR,CLR,0.00,WeatherDisplay:10.37,2013-06-03 07:03:00,
2013-06-03 02:08:00,44.4,39.0,30.02,WNW,292,0.0,0.0,81,0.00,CLR,CLR,0.00,WeatherDisplay:10.37,2013-06-03 07:08:00,
2013-06-03 02:13:00,44.2,38.8,30.02,WNW,292,0.0,0.0,81,0.00,CLR,CLR,0.00,WeatherDisplay:10.37,2013-06-03 07:13:00,
2013-06-03 02:18:00,44.1,38.9,30.02,WNW,292,0.0,0.0,82,0.00,CLR,CLR,0.00,WeatherDisplay:10.37,2013-06-03 07:18:00,
2013-06-03 02:24:00,43.9,38.7,30.02,WNW,292,0.0,0.0,82,0.00,CLR,CLR,0.00,WeatherDisplay:10.37,2013-06-03 07:24:00,
2013-06-03 02:29:00,43.7,38.6,30.02,WSW,248,0.0,0.0,82,0.00,CLR,CLR,0.00,WeatherDisplay:10.37,2013-06-03 07:29:00,
2013-06-03 02:34:00,43.5,38.4,30.02,West,270,0.0,0.0,82,0.00,CLR,CLR,0.00,WeatherDisplay:10.37,2013-06-03 07:34:00,
2013-06-03 02:39:00,43.5,38.4,30.02,West,270,0.0,0.0,82,0.00,CLR,CLR,0.00,WeatherDisplay:10.37,2013-06-03 07:39:00,
2013-06-03 02:44:00,43.5,38.7,30.02,West,270,0.0,0.0,83,0.00,CLR,CLR,0.00,WeatherDisplay:10.37,2013-06-03 07:44:00,
2013-06-03 02:49:00,43.3,38.5,30.02,West,270,0.1,1.1,83,0.00,CLR,CLR,0.00,WeatherDisplay:10.37,2013-06-03 07:49:00,
2013-06-03 02:54:00,43.3,38.5,30.01,West,270,0.0,0.0,83,0.00,CLR,CLR,0.00,WeatherDisplay:10.37,2013-06-03 07:54:00,
2013-06-03 03:00:00,43.2,38.3,30.02,NW,315,0.0,0.0,83,0.00,CLR,CLR,0.00,WeatherDisplay:10.37,2013-06-03 08:00:00,
2013-06-03 03:05:00,43.0,38.2,30.01,NNE,22,0.0,0.0,83,0.00,CLR,CLR,0.00,WeatherDisplay:10.37,2013-06-03 08:05:00,
2013-06-03 03:10:00,43.0,38.2,30.01,NNW,338,0.0,0.0,83,0.00,CLR,CLR,0.00,WeatherDisplay:10.37,2013-06-03 08:10:00,
2013-06-03 03:15:00,43.0,38.2,30.01,NNW,338,0.0,0.0,83,0.00,CLR,CLR,0.00,WeatherDisplay:10.37,2013-06-03 08:15:00,
2013-06-03 03:21:00,42.8,38.0,30.01,NNW,338,0.0,0.0,83,0.00,CLR,CLR,0.00,WeatherDisplay:10.37,2013-06-03 08:21:00,
2013-06-03 03:26:00,42.6,37.8,30.01,West,270,0.0,0.0,83,0.00,CLR,CLR,0.00,WeatherDisplay:10.37,2013-06-03 08:26:00,
2013-06-03 03:31:00,42.6,38.1,30.02,WSW,248,0.8,2.3,84,0.00,CLR,CLR,0.00,WeatherDisplay:10.37,2013-06-03 08:31:00,
2013-06-03 03:36:00,42.4,37.9,30.01,West,270,0.0,1.2,84,0.00,CLR,CLR,0.00,WeatherDisplay:10.37,2013-06-03 08:36:00,
2013-06-03 03:41:00,42.3,37.8,30.01,WNW,292,0.0,0.0,84,0.00,CLR,CLR,0.00,WeatherDisplay:10.37,2013-06-03 08:41:00,
2013-06-03 03:47:00,42.1,37.6,30.02,NW,315,0.4,1.2,84,0.00,CLR,CLR,0.00,WeatherDisplay:10.37,2013-06-03 08:47:00,
2013-06-03 03:52:00,42.1,37.6,30.02,North,0,0.3,1.2,84,0.00,CLR,CLR,0.00,WeatherDisplay:10.37,2013-06-03 08:52:00,
2013-06-03 03:57:00,42.1,37.6,30.01,NNW,338,1.3,2.3,84,0.00,CLR,CLR,0.00,WeatherDisplay:10.37,2013-06-03 08:57:00,
2013-06-03 04:02:00,42.1,37.9,30.01,NW,315,0.0,0.0,85,0.00,CLR,CLR,0.00,WeatherDisplay:10.37,2013-06-03 09:02:00,
2013-06-03 04:07:00,41.9,37.7,30.01,WNW,292,0.0,0.0,85,0.00,CLR,CLR,0.00,WeatherDisplay:10.37,2013-06-03 09:07:00,
2013-06-03 04:12:00,41.7,37.5,30.02,WNW,292,0.0,0.0,85,0.00,CLR,CLR,0.00,WeatherDisplay:10.37,2013-06-03 09:12:00,
2013-06-03 04:18:00,41.7,37.5,30.02,NE,45,0.0,0.0,85,0.00,CLR,CLR,0.00,WeatherDisplay:10.37,2013-06-03 09:18:00,
2013-06-03 04:23:00,41.5,37.4,30.01,NE,45,0.0,0.0,85,0.00,CLR,CLR,0.00,WeatherDisplay:10.37,2013-06-03 09:23:00,
2013-06-03 04:28:00,41.4,37.2,30.02,NE,45,0.0,0.0,85,0.00,CLR,CLR,0.00,WeatherDisplay:10.37,2013-06-03 09:28:00,
2013-06-03 04:33:00,41.4,37.2,30.02,East,90,0.0,0.0,85,0.00,CLR,CLR,0.00,WeatherDisplay:10.37,2013-06-03 09:33:00,
2013-06-03 04:38:00,41.2,37.0,30.02,ESE,112,0.0,0.0,85,0.00,CLR,CLR,0.00,WeatherDisplay:10.37,2013-06-03 09:38:00,
2013-06-03 04:43:00,40.8,36.7,30.02,WSW,248,0.0,0.0,85,0.00,CLR,CLR,0.00,WeatherDisplay:10.37,2013-06-03 09:43:00,
2013-06-03 04:48:00,40.8,37.0,30.02,West,270,0.0,0.0,86,0.00,CLR,CLR,0.00,WeatherDisplay:10.37,2013-06-03 09:48:00,
2013-06-03 04:53:00,40.8,36.7,30.02,West,270,0.0,0.0,85,0.00,CLR,CLR,0.00,WeatherDisplay:10.37,2013-06-03 09:53:00,
2013-06-03 04:58:00,40.6,36.5,30.03,West,270,0.0,0.0,85,0.00,CLR,CLR,0.00,WeatherDisplay:10.37,2013-06-03 09:58:00,
2013-06-03 05:03:00,40.6,36.5,30.02,WSW,248,0.0,0.0,85,0.00,CLR,CLR,0.00,WeatherDisplay:10.37,2013-06-03 10:03:00,
2013-06-03 05:08:00,40.5,36.3,30.02,WSW,248,0.0,0.0,85,0.00,CLR,CLR,0.00,WeatherDisplay:10.37,2013-06-03 10:08:00,
2013-06-03 05:14:00,40.3,36.1,30.02,SW,225,0.0,0.0,85,0.00,CLR,CLR,0.00,WeatherDisplay:10.37,2013-06-03 10:14:00,
2013-06-03 05:19:00,40.1,36.0,30.02,WSW,248,0.0,0.0,85,0.00,CLR,CLR,0.00,WeatherDisplay:10.37,2013-06-03 10:19:00,
2013-06-03 05:24:00,40.1,36.0,30.02,WSW,248,0.0,0.0,85,0.00,CLR,CLR,0.00,WeatherDisplay:10.37,2013-06-03 10:24:00,
2013-06-03 05:29:00,39.9,35.8,30.02,NW,315,0.0,0.0,85,0.00,CLR,CLR,0.00,WeatherDisplay:10.37,2013-06-03 10:29:00,
2013-06-03 05:34:00,39.9,36.1,30.03,NW,315,0.0,0.0,86,0.00,CLR,CLR,0.00,WeatherDisplay:10.37,2013-06-03 10:34:00,
2013-06-03 05:40:00,39.9,36.1,30.03,NNW,338,0.0,0.0,86,0.00,CLR,CLR,0.00,WeatherDisplay:10.37,2013-06-03 10:40:00,
2013-06-03 05:45:00,39.9,36.4,30.03,North,0,0.0,0.0,87,0.00,CLR,CLR,0.00,WeatherDisplay:10.37,2013-06-03 10:45:00,
2013-06-03 05:50:00,39.9,36.4,30.03,NW,315,0.0,0.0,87,0.00,CLR,CLR,0.00,WeatherDisplay:10.37,2013-06-03 10:50:00,
2013-06-03 05:55:00,39.9,36.4,30.03,NNW,338,0.4,2.5,87,0.00,CLR,CLR,0.00,WeatherDisplay:10.37,2013-06-03 10:55:00,
2013-06-03 06:00:00,40.3,36.7,30.03,North,0,0.2,2.3,87,0.00,CLR,CLR,0.00,WeatherDisplay:10.37,2013-06-03 11:00:00,
2013-06-03 06:05:00,40.6,37.1,30.03,North,0,0.0,0.0,87,0.00,CLR,CLR,0.00,WeatherDisplay:10.37,2013-06-03 11:05:00,
2013-06-03 06:10:00,40.8,37.3,30.03,North,0,0.0,0.0,87,0.00,CLR,CLR,0.00,WeatherDisplay:10.37,2013-06-03 11:10:00,
2013-06-03 06:16:00,40.8,37.3,30.03,NW,315,0.0,0.0,87,0.00,CLR,CLR,0.00,WeatherDisplay:10.37,2013-06-03 11:16:00,
2013-06-03 06:21:00,41.0,37.4,30.03,NW,315,0.0,0.0,87,0.00,CLR,CLR,0.00,WeatherDisplay:10.37,2013-06-03 11:21:00,
2013-06-03 06:27:00,41.2,37.9,30.03,WNW,292,0.0,0.0,88,0.00,CLR,CLR,0.00,WeatherDisplay:10.37,2013-06-03 11:27:00,
2013-06-03 06:32:00,41.5,38.3,30.03,WNW,292,0.0,0.0,88,0.00,CLR,CLR,0.00,WeatherDisplay:10.37,2013-06-03 11:32:00,
2013-06-03 06:37:00,41.7,38.4,30.03,WSW,248,0.0,0.0,88,0.00,CLR,CLR,0.00,WeatherDisplay:10.37,2013-06-03 11:37:00,
2013-06-03 06:42:00,42.3,39.0,30.03,West,270,0.0,0.0,88,0.00,CLR,CLR,0.00,WeatherDisplay:10.37,2013-06-03 11:42:00,
2013-06-03 06:47:00,42.6,39.6,30.03,West,270,0.0,0.0,89,0.00,CLR,CLR,0.00,WeatherDisplay:10.37,2013-06-03 11:47:00,
2013-06-03 06:53:00,43.2,40.1,30.03,West,270,0.0,0.0,89,0.00,CLR,CLR,0.00,WeatherDisplay:10.37,2013-06-03 11:53:00,
2013-06-03 06:58:00,43.9,40.8,30.04,NW,315,0.0,0.0,89,0.00,CLR,CLR,0.00,WeatherDisplay:10.37,2013-06-03 11:58:00,
2013-06-03 07:03:00,44.4,41.4,30.05,NW,315,0.0,0.0,89,0.00,CLR,CLR,0.00,WeatherDisplay:10.37,2013-06-03 12:03:00,
2013-06-03 07:08:00,45.1,42.1,30.04,WNW,292,0.0,0.0,89,0.00,CLR,CLR,0.00,WeatherDisplay:10.37,2013-06-03 12:08:00,
2013-06-03 07:13:00,46.0,43.0,30.05,NE,45,0.0,0.0,89,0.00,CLR,CLR,0.00,WeatherDisplay:10.37,2013-06-03 12:13:00,
2013-06-03 07:19:00,46.8,43.7,30.05,ENE,68,0.0,0.0,89,0.00,CLR,CLR,0.00,WeatherDisplay:10.37,2013-06-03 12:19:00,
2013-06-03 07:24:00,47.8,44.8,30.04,East,90,1.1,2.3,89,0.00,CLR,CLR,0.00,WeatherDisplay:10.37,2013-06-03 12:24:00,
2013-06-03 07:29:00,48.4,45.3,30.05,ESE,112,0.0,0.0,89,0.00,CLR,CLR,0.00,WeatherDisplay:10.37,2013-06-03 12:29:00,
2013-06-03 07:34:00,48.9,45.5,30.05,NE,45,2.8,3.5,88,0.00,CLR,CLR,0.00,WeatherDisplay:10.37,2013-06-03 12:34:00,
2013-06-03 07:39:00,49.3,45.6,30.05,ESE,112,0.9,3.5,87,0.00,CLR,CLR,0.00,WeatherDisplay:10.37,2013-06-03 12:39:00,
2013-06-03 07:45:00,49.6,45.3,30.05,ESE,112,3.0,3.5,85,0.00,CLR,CLR,0.00,WeatherDisplay:10.37,2013-06-03 12:45:00,
2013-06-03 07:50:00,49.8,45.2,30.05,ESE,112,2.6,3.6,84,0.00,CLR,CLR,0.00,WeatherDisplay:10.37,2013-06-03 12:50:00,
2013-06-03 07:55:00,50.4,45.4,30.05,ESE,112,4.2,5.8,83,0.00,CLR,CLR,0.00,WeatherDisplay:10.37,2013-06-03 12:55:00,
2013-06-03 08:00:00,50.7,44.8,30.06,SE,135,4.2,4.6,80,0.00,CLR,CLR,0.00,WeatherDisplay:10.37,2013-06-03 13:00:00,
2013-06-03 08:06:00,51.3,45.0,30.05,East,90,2.0,4.5,79,0.00,CLR,CLR,0.00,WeatherDisplay:10.37,2013-06-03 13:06:00,
2013-06-03 08:11:00,52.0,45.3,30.05,ESE,112,3.1,3.5,78,0.00,CLR,CLR,0.00,WeatherDisplay:10.37,2013-06-03 13:11:00,
2013-06-03 08:16:00,52.5,45.5,30.05,ESE,112,5.0,6.9,77,0.00,CLR,CLR,0.00,WeatherDisplay:10.37,2013-06-03 13:16:00,
2013-06-03 08:21:00,53.2,45.9,30.05,SE,135,3.4,6.9,76,0.00,CLR,CLR,0.00,WeatherDisplay:10.37,2013-06-03 13:21:00,
2013-06-03 08:26:00,53.8,46.0,30.05,ENE,68,3.5,3.5,75,0.00,CLR,CLR,0.00,WeatherDisplay:10.37,2013-06-03 13:26:00,
2013-06-03 08:31:00,54.5,46.4,30.05,SSE,158,3.0,3.5,74,0.00,CLR,CLR,0.00,WeatherDisplay:10.37,2013-06-03 13:31:00,
2013-06-03 08:36:00,55.2,46.3,30.05,ENE,68,5.5,8.1,72,0.00,CLR,CLR,0.00,WeatherDisplay:10.37,2013-06-03 13:36:00,
2013-06-03 08:41:00,55.9,46.3,30.05,East,90,3.4,4.6,70,0.00,CLR,CLR,0.00,WeatherDisplay:10.37,2013-06-03 13:41:00,
2013-06-03 08:46:00,56.5,46.4,30.05,ESE,112,3.9,6.7,69,0.00,CLR,CLR,0.00,WeatherDisplay:10.37,2013-06-03 13:46:00,
2013-06-03 08:51:00,57.0,46.2,30.06,SSE,158,4.7,6.0,67,0.00,CLR,CLR,0.00,WeatherDisplay:10.37,2013-06-03 13:51:00,
2013-06-03 08:56:00,57.6,46.7,30.06,East,90,4.1,6.9,67,0.00,CLR,CLR,0.00,WeatherDisplay:10.37,2013-06-03 13:56:00,
2013-06-03 09:02:00,58.1,46.4,30.06,ESE,112,1.8,3.6,65,0.00,CLR,CLR,0.00,WeatherDisplay:10.37,2013-06-03 14:02:00,
2013-06-03 09:07:00,58.8,47.1,30.06,SSE,158,2.9,4.6,65,0.00,CLR,CLR,0.00,WeatherDisplay:10.37,2013-06-03 14:07:00,
2013-06-03 09:12:00,59.4,47.2,30.06,NE,45,3.1,4.6,64,0.00,CLR,CLR,0.00,WeatherDisplay:10.37,2013-06-03 14:12:00,
2013-06-03 09:17:00,59.9,47.3,30.06,ESE,112,1.6,2.5,63,0.00,CLR,CLR,0.00,WeatherDisplay:10.37,2013-06-03 14:17:00,
2013-06-03 09:22:00,60.6,47.9,30.05,SE,135,4.5,5.8,63,0.00,CLR,CLR,0.00,WeatherDisplay:10.37,2013-06-03 14:22:00,
2013-06-03 09:27:00,61.3,48.2,30.06,SSE,158,4.4,4.9,62,0.00,CLR,CLR,0.00,WeatherDisplay:10.37,2013-06-03 14:27:00,
2013-06-03 09:32:00,61.9,48.3,30.05,ESE,112,3.0,3.5,61,0.00,CLR,CLR,0.00,WeatherDisplay:10.37,2013-06-03 14:32:00,
2013-06-03 09:37:00,62.4,48.8,30.06,SE,135,0.3,3.5,61,0.00,CLR,CLR,0.00,WeatherDisplay:10.37,2013-06-03 14:37:00,
2013-06-03 09:42:00,63.1,48.6,30.05,SSE,158,2.5,5.8,59,0.00,CLR,CLR,0.00,WeatherDisplay:10.37,2013-06-03 14:42:00,
2013-06-03 09:48:00,63.9,49.2,30.05,SE,135,2.9,3.5,59,0.00,CLR,CLR,0.00,WeatherDisplay:10.37,2013-06-03 14:48:00,
2013-06-03 09:53:00,64.2,49.1,30.05,SSW,202,3.6,5.8,58,0.00,CLR,CLR,0.00,WeatherDisplay:10.37,2013-06-03 14:53:00,
2013-06-03 09:58:00,65.1,50.0,30.04,ENE,68,3.1,5.8,58,0.00,CLR,CLR,0.00,WeatherDisplay:10.37,2013-06-03 14:58:00,
2013-06-03 10:03:00,65.5,48.9,30.04,SW,225,0.0,0.0,55,0.00,CLR,CLR,0.00,WeatherDisplay:10.37,2013-06-03 15:03:00,
2013-06-03 10:08:00,66.0,49.9,30.04,ESE,112,2.9,3.5,56,0.00,CLR,CLR,0.00,WeatherDisplay:10.37,2013-06-03 15:08:00,
2013-06-03 10:13:00,66.7,50.1,30.04,SSE,158,6.0,8.1,55,0.00,CLR,CLR,0.00,WeatherDisplay:10.37,2013-06-03 15:13:00,
2013-06-03 10:19:00,67.3,50.1,30.04,ENE,68,0.2,3.5,54,0.00,CLR,CLR,0.00,WeatherDisplay:10.37,2013-06-03 15:19:00,
2013-06-03 10:24:00,67.8,50.6,30.05,SSE,158,4.3,5.8,54,0.00,CLR,CLR,0.00,WeatherDisplay:10.37,2013-06-03 15:24:00,
2013-06-03 10:29:00,68.5,50.7,30.05,SSE,158,0.9,2.3,53,0.00,CLR,CLR,0.00,WeatherDisplay:10.37,2013-06-03 15:29:00,
2013-06-03 10:34:00,69.1,50.2,30.04,SE,135,3.9,5.8,51,0.00,CLR,CLR,0.00,WeatherDisplay:10.37,2013-06-03 15:34:00,
2013-06-03 10:40:00,69.3,49.8,30.05,SE,135,5.7,6.9,50,0.00,CLR,CLR,0.00,WeatherDisplay:10.37,2013-06-03 15:40:00,
2013-06-03 10:45:00,69.6,50.2,30.04,SE,135,3.2,3.8,50,0.00,CLR,CLR,0.00,WeatherDisplay:10.37,2013-06-03 15:45:00,
2013-06-03 10:50:00,69.6,49.1,30.04,SW,225,6.0,13.9,48,0.00,CLR,CLR,0.00,WeatherDisplay:10.37,2013-06-03 15:50:00,
2013-06-03 10:55:00,69.6,48.5,30.04,South,180,7.6,11.5,47,0.00,CLR,CLR,0.00,WeatherDisplay:10.37,2013-06-03 15:55:00,
2013-06-03 11:00:00,70.3,49.1,30.04,SSE,158,2.1,4.6,47,0.00,CLR,CLR,0.00,WeatherDisplay:10.37,2013-06-03 16:00:00,
2013-06-03 11:05:00,70.7,48.9,30.05,SSW,202,0.9,3.8,46,0.00,CLR,CLR,0.00,WeatherDisplay:10.37,2013-06-03 16:05:00,
2013-06-03 11:10:00,70.9,49.6,30.04,SE,135,2.9,4.6,47,0.00,CLR,CLR,0.00,WeatherDisplay:10.37,2013-06-03 16:10:00,
2013-06-03 11:16:00,71.4,49.0,30.04,SE,135,3.5,4.6,45,0.00,CLR,CLR,0.00,WeatherDisplay:10.37,2013-06-03 16:16:00,
2013-06-03 11:21:00,71.8,48.7,30.04,SSE,158,1.7,1.7,44,0.00,CLR,CLR,0.00,WeatherDisplay:10.37,2013-06-03 16:21:00,
2013-06-03 11:26:00,72.1,48.4,30.04,East,90,0.0,2.3,43,0.00,CLR,CLR,0.00,WeatherDisplay:10.37,2013-06-03 16:26:00,
2013-06-03 11:31:00,72.5,49.3,30.05,SSE,158,5.4,10.4,44,0.00,CLR,CLR,0.00,WeatherDisplay:10.37,2013-06-03 16:31:00,
2013-06-03 11:37:00,73.0,49.2,30.05,East,90,1.4,4.2,43,0.00,CLR,CLR,0.00,WeatherDisplay:10.37,2013-06-03 16:37:00,
2013-06-03 11:42:00,73.0,47.9,30.04,NW,315,1.9,6.9,41,0.00,CLR,CLR,0.00,WeatherDisplay:10.37,2013-06-03 16:42:00,
2013-06-03 11:47:00,72.3,47.3,30.03,ENE,68,3.0,4.2,41,0.00,CLR,CLR,0.00,WeatherDisplay:10.37,2013-06-03 16:47:00,
2013-06-03 11:52:00,72.7,48.9,30.04,SE,135,2.1,3.5,43,0.00,CLR,CLR,0.00,WeatherDisplay:10.37,2013-06-03 16:52:00,
2013-06-03 11:58:00,73.4,46.9,30.04,East,90,4.8,5.8,39,0.00,CLR,CLR,0.00,WeatherDisplay:10.37,2013-06-03 16:58:00,
2013-06-03 12:03:00,73.6,47.8,30.05,WSW,248,4.7,8.1,40,0.00,CLR,CLR,0.00,WeatherDisplay:10.37,2013-06-03 17:03:00,
2013-06-03 12:08:00,72.5,46.1,30.04,SSE,158,3.4,6.9,39,0.00,CLR,CLR,0.00,WeatherDisplay:10.37,2013-06-03 17:08:00,
2013-06-03 12:13:00,72.7,46.3,30.04,SW,225,2.0,2.3,39,0.00,CLR,CLR,0.00,WeatherDisplay:10.37,2013-06-03 17:13:00,
2013-06-03 12:18:00,72.3,46.0,30.04,South,180,0.0,0.0,39,0.00,CLR,CLR,0.00,WeatherDisplay:10.37,2013-06-03 17:18:00,
2013-06-03 12:23:00,71.8,44.8,30.04,SW,225,1.3,4.6,38,0.00,CLR,CLR,0.00,WeatherDisplay:10.37,2013-06-03 17:23:00,
2013-06-03 12:29:00,72.0,45.6,30.04,South,180,1.0,4.6,39,0.00,CLR,CLR,0.00,WeatherDisplay:10.37,2013-06-03 17:29:00,
2013-06-03 12:34:00,72.5,47.5,30.03,ESE,112,4.1,5.8,41,0.00,CLR,CLR,0.00,WeatherDisplay:10.37,2013-06-03 17:34:00,
2013-06-03 12:39:00,73.2,47.4,30.03,SE,135,3.6,7.6,40,0.00,CLR,CLR,0.00,WeatherDisplay:10.37,2013-06-03 17:39:00,
2013-06-03 12:44:00,73.8,48.6,30.03,South,180,2.5,4.6,41,0.00,CLR,CLR,0.00,WeatherDisplay:10.37,2013-06-03 17:44:00,
2013-06-03 12:49:00,74.1,47.6,30.02,ENE,68,1.4,2.5,39,0.00,CLR,CLR,0.00,WeatherDisplay:10.37,2013-06-03 17:49:00,
2013-06-03 12:54:00,73.9,47.4,30.03,SSE,158,1.9,4.7,39,0.00,CLR,CLR,0.00,WeatherDisplay:10.37,2013-06-03 17:54:00,
2013-06-03 12:59:00,73.8,47.9,30.03,SSE,158,4.1,5.8,40,0.00,CLR,CLR,0.00,WeatherDisplay:10.37,2013-06-03 17:59:00,
2013-06-03 13:05:00,73.8,47.9,30.03,SSE,158,4.5,6.9,40,0.00,CLR,CLR,0.00,WeatherDisplay:10.37,2013-06-03 18:05:00,
2013-06-03 13:10:00,74.1,48.9,30.03,SE,135,3.8,4.6,41,0.00,CLR,CLR,0.00,WeatherDisplay:10.37,2013-06-03 18:10:00,
2013-06-03 13:15:00,74.5,47.9,30.02,SW,225,2.5,3.5,39,0.00,CLR,CLR,0.00,WeatherDisplay:10.37,2013-06-03 18:15:00,
2013-06-03 13:21:00,74.5,47.9,30.03,South,180,2.9,4.6,39,0.00,CLR,CLR,0.00,WeatherDisplay:10.37,2013-06-03 18:21:00,
2013-06-03 13:26:00,73.8,46.6,30.03,South,180,5.6,6.9,38,0.00,CLR,CLR,0.00,WeatherDisplay:10.37,2013-06-03 18:26:00,
2013-06-03 13:31:00,72.1,44.4,30.03,South,180,4.7,5.8,37,0.00,CLR,CLR,0.00,WeatherDisplay:10.37,2013-06-03 18:31:00,
2013-06-03 13:36:00,71.2,45.0,30.03,South,180,2.7,4.6,39,0.00,CLR,CLR,0.00,WeatherDisplay:10.37,2013-06-03 18:36:00,
2013-06-03 13:41:00,70.7,45.2,30.03,SE,135,0.1,1.2,40,0.00,CLR,CLR,0.00,WeatherDisplay:10.37,2013-06-03 18:41:00,
2013-06-03 13:46:00,70.5,45.7,30.03,SE,135,4.6,5.8,41,0.00,CLR,CLR,0.00,WeatherDisplay:10.37,2013-06-03 18:46:00,
2013-06-03 13:52:00,70.3,45.5,30.03,South,180,3.0,4.6,41,0.00,CLR,CLR,0.00,WeatherDisplay:10.37,2013-06-03 18:52:00,
2013-06-03 13:57:00,70.3,46.2,30.03,SE,135,0.0,0.0,42,0.00,CLR,CLR,0.00,WeatherDisplay:10.37,2013-06-03 18:57:00,
2013-06-03 14:02:00,70.9,46.6,30.03,ESE,112,3.7,5.8,42,0.00,CLR,CLR,0.00,WeatherDisplay:10.37,2013-06-03 19:02:00,
2013-06-03 14:07:00,71.4,46.5,30.02,East,90,3.1,4.6,41,0.00,CLR,CLR,0.00,WeatherDisplay:10.37,2013-06-03 19:07:00,
2013-06-03 14:12:00,72.5,48.1,30.01,SE,135,4.5,5.4,42,0.00,CLR,CLR,0.00,WeatherDisplay:10.37,2013-06-03 19:12:00,
2013-06-03 14:18:00,73.6,48.4,30.01,SSE,158,1.0,5.8,41,0.00,CLR,CLR,0.00,WeatherDisplay:10.37,2013-06-03 19:18:00,
2013-06-03 14:23:00,74.3,49.1,30.00,ESE,112,2.8,5.8,41,0.00,CLR,CLR,0.00,WeatherDisplay:10.37,2013-06-03 19:23:00,
2013-06-03 14:28:00,74.5,48.6,30.00,SE,135,6.6,10.4,40,0.00,CLR,CLR,0.00,WeatherDisplay:10.37,2013-06-03 19:28:00,
2013-06-03 14:33:00,73.9,47.4,30.00,SE,135,7.6,9.2,39,0.00,CLR,CLR,0.00,WeatherDisplay:10.37,2013-06-03 19:33:00,
2013-06-03 14:39:00,73.2,46.8,30.00,SE,135,8.5,10.9,39,0.00,CLR,CLR,0.00,WeatherDisplay:10.37,2013-06-03 19:39:00,
2013-06-03 14:44:00,72.3,46.0,29.99,East,90,7.1,8.1,39,0.00,CLR,CLR,0.00,WeatherDisplay:10.37,2013-06-03 19:44:00,
2013-06-03 14:49:00,71.4,45.8,29.99,ESE,112,7.3,9.2,40,0.00,CLR,CLR,0.00,WeatherDisplay:10.37,2013-06-03 19:49:00,
2013-06-03 14:54:00,70.3,44.9,29.99,SE,135,4.9,6.9,40,0.00,CLR,CLR,0.00,WeatherDisplay:10.37,2013-06-03 19:54:00,
2013-06-03 14:59:00,69.4,44.7,29.99,SE,135,5.5,8.9,41,0.00,CLR,CLR,0.00,WeatherDisplay:10.37,2013-06-03 19:59:00,
2013-06-03 15:05:00,68.7,44.1,29.99,SSW,202,4.2,5.8,41,0.00,CLR,CLR,0.00,WeatherDisplay:10.37,2013-06-03 20:05:00,
2013-06-03 15:10:00,67.8,43.9,30.00,West,270,0.7,3.5,42,0.00,CLR,CLR,0.00,WeatherDisplay:10.37,2013-06-03 20:10:00,
2013-06-03 15:15:00,67.3,43.4,30.01,ESE,112,4.0,4.6,42,0.00,CLR,CLR,0.00,WeatherDisplay:10.37,2013-06-03 20:15:00,
2013-06-03 15:20:00,66.9,43.7,30.01,ESE,112,4.3,5.4,43,0.00,CLR,CLR,0.00,WeatherDisplay:10.37,2013-06-03 20:20:00,
2013-06-03 15:25:00,66.6,44.0,30.01,ESE,112,1.8,3.5,44,0.00,CLR,CLR,0.00,WeatherDisplay:10.37,2013-06-03 20:25:00,
2013-06-03 15:30:00,66.4,43.8,30.01,ESE,112,2.8,3.5,44,0.00,CLR,CLR,0.00,WeatherDisplay:10.37,2013-06-03 20:30:00,
2013-06-03 15:35:00,66.4,44.4,30.01,ESE,112,3.5,4.6,45,0.00,CLR,CLR,0.00,WeatherDisplay:10.37,2013-06-03 20:35:00,
2013-06-03 15:41:00,66.4,44.4,30.00,ESE,112,4.8,5.8,45,0.00,CLR,CLR,0.00,WeatherDisplay:10.37,2013-06-03 20:41:00,
2013-06-03 15:46:00,66.4,44.4,30.00,ESE,112,2.3,6.9,45,0.00,CLR,CLR,0.00,WeatherDisplay:10.37,2013-06-03 20:46:00,
2013-06-03 15:51:00,66.4,44.4,30.00,ESE,112,5.7,8.1,45,0.00,CLR,CLR,0.00,WeatherDisplay:10.37,2013-06-03 20:51:00,
2013-06-03 15:57:00,66.0,44.1,30.00,SSE,158,3.9,7.4,45,0.00,CLR,CLR,0.00,WeatherDisplay:10.37,2013-06-03 20:57:00,
2013-06-03 16:02:00,65.7,43.7,29.99,South,180,5.9,8.1,45,0.00,CLR,CLR,0.00,WeatherDisplay:10.37,2013-06-03 21:02:00,
2013-06-03 16:07:00,65.5,44.1,29.99,South,180,3.4,8.1,46,0.00,CLR,CLR,0.00,WeatherDisplay:10.37,2013-06-03 21:07:00,
2013-06-03 16:12:00,65.5,44.7,29.98,SE,135,9.0,11.5,47,0.00,CLR,CLR,0.00,WeatherDisplay:10.37,2013-06-03 21:12:00,
2013-06-03 16:17:00,65.5,44.1,29.98,ESE,112,7.1,10.4,46,0.00,CLR,CLR,0.00,WeatherDisplay:10.37,2013-06-03 21:17:00,
2013-06-03 16:22:00,65.8,44.5,29.98,East,90,5.7,9.2,46,0.00,CLR,CLR,0.00,WeatherDisplay:10.37,2013-06-03 21:22:00,
2013-06-03 16:28:00,65.7,44.9,29.97,SE,135,5.7,8.1,47,0.00,CLR,CLR,0.00,WeatherDisplay:10.37,2013-06-03 21:28:00,
2013-06-03 16:33:00,65.5,44.7,29.97,East,90,7.3,8.1,47,0.00,CLR,CLR,0.00,WeatherDisplay:10.37,2013-06-03 21:33:00,
2013-06-03 16:38:00,65.3,44.5,29.97,ESE,112,6.4,6.9,47,0.00,CLR,CLR,0.00,WeatherDisplay:10.37,2013-06-03 21:38:00,
2013-06-03 16:43:00,65.1,44.4,29.97,ESE,112,5.7,7.4,47,0.00,CLR,CLR,0.00,WeatherDisplay:10.37,2013-06-03 21:43:00,
2013-06-03 16:48:00,64.9,44.2,29.98,ESE,112,5.1,5.8,47,0.00,CLR,CLR,0.00,WeatherDisplay:10.37,2013-06-03 21:48:00,
2013-06-03 16:53:00,64.8,44.1,29.97,ESE,112,5.9,6.9,47,0.00,CLR,CLR,0.00,WeatherDisplay:10.37,2013-06-03 21:53:00,
2013-06-03 16:59:00,64.6,43.9,29.97,ESE,112,8.1,10.4,47,0.00,CLR,CLR,0.00,WeatherDisplay:10.37,2013-06-03 21:59:00,
2013-06-03 17:04:00,64.6,44.4,29.97,East,90,9.5,9.5,48,0.00,CLR,CLR,0.00,WeatherDisplay:10.37,2013-06-03 22:04:00,
2013-06-03 17:09:00,64.6,44.4,29.96,East,90,4.5,8.1,48,0.00,CLR,CLR,0.00,WeatherDisplay:10.37,2013-06-03 22:09:00,
2013-06-03 17:14:00,64.6,44.4,29.96,ESE,112,9.6,12.7,48,0.00,CLR,CLR,0.00,WeatherDisplay:10.37,2013-06-03 22:14:00,
2013-06-03 17:19:00,64.6,44.4,29.96,East,90,6.4,9.2,48,0.00,CLR,CLR,0.00,WeatherDisplay:10.37,2013-06-03 22:19:00,
2013-06-03 17:25:00,64.6,44.4,29.95,East,90,7.9,10.4,48,0.00,CLR,CLR,0.00,WeatherDisplay:10.37,2013-06-03 22:25:00,
2013-06-03 17:30:00,64.9,44.8,29.95,East,90,5.5,10.4,48,0.00,CLR,CLR,0.00,WeatherDisplay:10.37,2013-06-03 22:30:00,
2013-06-03 17:35:00,66.0,46.3,29.95,NE,45,4.1,5.8,49,0.00,CLR,CLR,0.00,WeatherDisplay:10.37,2013-06-03 22:35:00,
2013-06-03 17:40:00,66.9,46.0,29.95,ESE,112,11.2,15.0,47,0.00,CLR,CLR,0.00,WeatherDisplay:10.37,2013-06-03 22:40:00,
2013-06-03 17:45:00,67.3,45.8,29.95,ENE,68,6.8,9.2,46,0.00,CLR,CLR,0.00,WeatherDisplay:10.37,2013-06-03 22:45:00,
2013-06-03 17:50:00,67.3,46.4,29.96,East,90,9.8,12.7,47,0.00,CLR,CLR,0.00,WeatherDisplay:10.37,2013-06-03 22:50:00,
2013-06-03 17:55:00,67.6,46.7,29.97,ESE,112,5.8,8.1,47,0.00,CLR,CLR,0.00,WeatherDisplay:10.37,2013-06-03 22:55:00,
2013-06-03 18:00:00,67.8,46.8,29.96,East,90,7.1,9.2,47,0.00,CLR,CLR,0.00,WeatherDisplay:10.37,2013-06-03 23:00:00,
2013-06-03 18:06:00,68.2,46.6,29.97,East,90,9.3,11.5,46,0.00,CLR,CLR,0.00,WeatherDisplay:10.37,2013-06-03 23:06:00,
2013-06-03 18:11:00,67.8,46.3,29.97,East,90,7.4,9.2,46,0.00,CLR,CLR,0.00,WeatherDisplay:10.37,2013-06-03 23:11:00,
2013-06-03 18:16:00,67.6,46.1,29.97,ESE,112,10.7,12.5,46,0.00,CLR,CLR,0.00,WeatherDisplay:10.37,2013-06-03 23:16:00,
2013-06-03 18:21:00,67.6,46.1,29.97,ESE,112,10.2,15.0,46,0.00,CLR,CLR,0.00,WeatherDisplay:10.37,2013-06-03 23:21:00,
2013-06-03 18:26:00,67.6,46.7,29.97,NE,45,7.7,9.2,47,0.00,CLR,CLR,0.00,WeatherDisplay:10.37,2013-06-03 23:26:00,
2013-06-03 18:32:00,67.8,46.8,29.97,ESE,112,7.1,10.4,47,0.00,CLR,CLR,0.00,WeatherDisplay:10.37,2013-06-03 23:32:00,
2013-06-03 18:37:00,68.4,47.3,29.97,ESE,112,7.0,8.3,47,0.00,CLR,CLR,0.00,WeatherDisplay:10.37,2013-06-03 23:37:00,
2013-06-03 18:42:00,68.2,46.6,29.97,ESE,112,6.8,7.6,46,0.00,CLR,CLR,0.00,WeatherDisplay:10.37,2013-06-03 23:42:00,
2013-06-03 18:47:00,68.2,46.6,29.97,ESE,112,7.9,11.4,46,0.00,CLR,CLR,0.00,WeatherDisplay:10.37,2013-06-03 23:47:00,
2013-06-03 18:52:00,67.3,45.8,29.97,ESE,112,7.5,7.5,46,0.00,CLR,CLR,0.00,WeatherDisplay:10.37,2013-06-03 23:52:00,
2013-06-03 18:57:00,66.6,45.7,29.97,ESE,112,6.0,8.1,47,0.00,CLR,CLR,0.00,WeatherDisplay:10.37,2013-06-03 23:57:00,
2013-06-03 19:02:00,66.0,45.2,29.97,ESE,112,8.9,10.4,47,0.00,CLR,CLR,0.00,WeatherDisplay:10.37,2013-06-04 00:02:00,
2013-06-03 19:08:00,65.5,44.7,29.97,East,90,10.5,11.5,47,0.00,CLR,CLR,0.00,WeatherDisplay:10.37,2013-06-04 00:08:00,
2013-06-03 19:13:00,64.9,44.8,29.97,SE,135,9.7,10.4,48,0.00,CLR,CLR,0.00,WeatherDisplay:10.37,2013-06-04 00:13:00,
2013-06-03 19:18:00,64.6,44.4,29.97,East,90,7.8,9.2,48,0.00,CLR,CLR,0.00,WeatherDisplay:10.37,2013-06-04 00:18:00,
2013-06-03 19:23:00,64.2,44.6,29.98,East,90,8.3,9.2,49,0.00,CLR,CLR,0.00,WeatherDisplay:10.37,2013-06-04 00:23:00,
2013-06-03 19:28:00,64.0,44.5,29.98,ESE,112,6.5,8.1,49,0.00,CLR,CLR,0.00,WeatherDisplay:10.37,2013-06-04 00:28:00,
2013-06-03 19:33:00,63.7,44.2,29.98,East,90,4.7,7.4,49,0.00,CLR,CLR,0.00,WeatherDisplay:10.37,2013-06-04 00:33:00,
2013-06-03 19:38:00,63.7,44.7,29.99,ESE,112,4.7,5.8,50,0.00,CLR,CLR,0.00,WeatherDisplay:10.37,2013-06-04 00:38:00,
2013-06-03 19:43:00,63.5,44.5,29.99,ESE,112,5.2,5.8,50,0.00,CLR,CLR,0.00,WeatherDisplay:10.37,2013-06-04 00:43:00,
2013-06-03 19:48:00,63.3,44.9,29.99,ESE,112,7.8,10.4,51,0.00,CLR,CLR,0.00,WeatherDisplay:10.37,2013-06-04 00:48:00,
2013-06-03 19:54:00,63.1,44.7,30.00,East,90,7.4,9.2,51,0.00,CLR,CLR,0.00,WeatherDisplay:10.37,2013-06-04 00:54:00,
2013-06-03 19:59:00,63.1,44.7,30.00,ESE,112,5.8,10.4,51,0.00,CLR,CLR,0.00,WeatherDisplay:10.37,2013-06-04 00:59:00,
2013-06-03 20:04:00,63.0,44.5,29.99,ESE,112,6.8,9.2,51,0.00,CLR,CLR,0.00,WeatherDisplay:10.37,2013-06-04 01:04:00,
2013-06-03 20:09:00,62.8,44.4,30.00,ESE,112,7.7,9.2,51,0.00,CLR,CLR,0.00,WeatherDisplay:10.37,2013-06-04 01:09:00,
2013-06-03 20:14:00,62.6,44.7,30.00,ESE,112,5.0,10.4,52,0.00,CLR,CLR,0.00,WeatherDisplay:10.37,2013-06-04 01:14:00,
2013-06-03 20:19:00,62.4,44.0,29.99,SE,135,5.6,8.1,51,0.00,CLR,CLR,0.00,WeatherDisplay:10.37,2013-06-04 01:19:00,
2013-06-03 20:25:00,62.4,44.6,30.00,East,90,6.3,6.9,52,0.00,CLR,CLR,0.00,WeatherDisplay:10.37,2013-06-04 01:25:00,
2013-06-03 20:30:00,62.4,44.6,30.00,ESE,112,3.0,6.9,52,0.00,CLR,CLR,0.00,WeatherDisplay:10.37,2013-06-04 01:30:00,
2013-06-03 20:35:00,62.2,44.4,30.00,East,90,2.4,3.5,52,0.00,CLR,CLR,0.00,WeatherDisplay:10.37,2013-06-04 01:35:00,
2013-06-03 20:40:00,62.1,44.7,30.00,ENE,68,3.2,4.7,53,0.00,CLR,CLR,0.00,WeatherDisplay:10.37,2013-06-04 01:40:00,
2013-06-03 20:45:00,61.9,44.6,30.00,NNE,22,1.5,3.5,53,0.00,CLR,CLR,0.00,WeatherDisplay:10.37,2013-06-04 01:45:00,
2013-06-03 20:50:00,61.9,45.0,30.00,East,90,3.8,5.8,54,0.00,CLR,CLR,0.00,WeatherDisplay:10.37,2013-06-04 01:50:00,
2013-06-03 20:56:00,61.5,45.2,30.00,ENE,68,2.5,4.5,55,0.00,CLR,CLR,0.00,WeatherDisplay:10.37,2013-06-04 01:56:00,
2013-06-03 21:01:00,61.5,45.7,30.00,ESE,112,5.1,9.2,56,0.00,CLR,CLR,0.00,WeatherDisplay:10.37,2013-06-04 02:01:00,
2013-06-03 21:06:00,61.3,46.0,30.00,ESE,112,6.4,8.1,57,0.00,CLR,CLR,0.00,WeatherDisplay:10.37,2013-06-04 02:06:00,
2013-06-03 21:11:00,61.2,45.8,30.00,ENE,68,4.1,8.1,57,0.00,CLR,CLR,0.00,WeatherDisplay:10.37,2013-06-04 02:11:00,
2013-06-03 21:16:00,61.0,45.6,30.00,ESE,112,4.1,5.8,57,0.00,CLR,CLR,0.00,WeatherDisplay:10.37,2013-06-04 02:16:00,
2013-06-03 21:21:00,61.0,46.1,30.01,East,90,4.5,5.8,58,0.00,CLR,CLR,0.00,WeatherDisplay:10.37,2013-06-04 02:21:00,
2013-06-03 21:26:00,61.0,46.1,30.01,East,90,3.6,6.9,58,0.00,CLR,CLR,0.00,WeatherDisplay:10.37,2013-06-04 02:26:00,
2013-06-03 21:32:00,60.8,45.9,30.01,East,90,3.6,3.6,58,0.00,CLR,CLR,0.00,WeatherDisplay:10.37,2013-06-04 02:32:00,
2013-06-03 21:37:00,60.6,46.2,30.01,East,90,2.2,2.3,59,0.00,CLR,CLR,0.00,WeatherDisplay:10.37,2013-06-04 02:37:00,
2013-06-03 21:42:00,60.6,46.2,30.02,East,90,3.4,4.6,59,0.00,CLR,CLR,0.00,WeatherDisplay:10.37,2013-06-04 02:42:00,
2013-06-03 21:47:00,60.6,46.2,30.02,ENE,68,3.8,5.8,59,0.00,CLR,CLR,0.00,WeatherDisplay:10.37,2013-06-04 02:47:00,
2013-06-03 21:52:00,60.4,46.0,30.02,East,90,5.5,5.8,59,0.00,CLR,CLR,0.00,WeatherDisplay:10.37,2013-06-04 02:52:00,
2013-06-03 21:57:00,60.4,46.0,30.02,ESE,112,3.7,5.8,59,0.00,CLR,CLR,0.00,WeatherDisplay:10.37,2013-06-04 02:57:00,
2013-06-03 22:03:00,60.4,46.5,30.02,NE,45,3.3,5.8,60,0.00,CLR,CLR,0.00,WeatherDisplay:10.37,2013-06-04 03:03:00,
2013-06-03 22:08:00,60.4,46.5,30.02,East,90,5.6,5.8,60,0.00,CLR,CLR,0.00,WeatherDisplay:10.37,2013-06-04 03:08:00,
2013-06-03 22:13:00,60.4,46.5,30.03,ESE,112,1.8,3.5,60,0.00,CLR,CLR,0.00,WeatherDisplay:10.37,2013-06-04 03:13:00,
2013-06-03 22:18:00,60.4,46.5,30.03,ENE,68,4.0,4.6,60,0.00,CLR,CLR,0.00,WeatherDisplay:10.37,2013-06-04 03:18:00,
2013-06-03 22:23:00,60.3,46.3,30.03,East,90,1.1,2.3,60,0.00,CLR,CLR,0.00,WeatherDisplay:10.37,2013-06-04 03:23:00,
2013-06-03 22:28:00,60.1,46.1,30.04,ENE,68,2.7,3.5,60,0.00,CLR,CLR,0.00,WeatherDisplay:10.37,2013-06-04 03:28:00,
2013-06-03 22:33:00,60.1,46.1,30.04,East,90,4.1,5.8,60,0.00,CLR,CLR,0.00,WeatherDisplay:10.37,2013-06-04 03:33:00,
2013-06-03 22:38:00,60.1,46.1,30.04,East,90,2.6,4.6,60,0.00,CLR,CLR,0.00,WeatherDisplay:10.37,2013-06-04 03:38:00,
2013-06-03 22:44:00,59.9,46.0,30.04,ENE,68,2.5,9.4,60,0.00,CLR,CLR,0.00,WeatherDisplay:10.37,2013-06-04 03:44:00,
2013-06-03 22:49:00,59.7,45.8,30.04,East,90,5.0,8.1,60,0.00,CLR,CLR,0.00,WeatherDisplay:10.37,2013-06-04 03:49:00,
2013-06-03 22:54:00,59.5,45.2,30.03,SE,135,5.4,5.8,59,0.00,CLR,CLR,0.00,WeatherDisplay:10.37,2013-06-04 03:54:00,
2013-06-03 22:59:00,59.5,45.2,30.03,NE,45,7.0,9.2,59,0.00,CLR,CLR,0.00,WeatherDisplay:10.37,2013-06-04 03:59:00,
2013-06-03 23:01:00,59.5,45.2,30.03,SE,135,6.3,10.4,59,0.00,CLR,CLR,0.00,WeatherDisplay:10.37,2013-06-04 04:01:00,
2013-06-03 23:02:00,59.5,45.2,30.03,ESE,112,8.1,11.5,59,0.00,CLR,CLR,0.00,WeatherDisplay:10.37,2013-06-04 04:02:00,
2013-06-03 23:03:00,59.5,45.2,30.03,ESE,112,6.3,10.4,59,0.00,CLR,CLR,0.00,WeatherDisplay:10.37,2013-06-04 04:03:00,
2013-06-03 23:08:00,59.5,45.2,30.03,ENE,68,7.0,12.7,59,0.00,CLR,CLR,0.00,WeatherDisplay:10.37,2013-06-04 04:08:00,
2013-06-03 23:13:00,59.4,44.6,30.03,ESE,112,8.1,10.4,58,0.00,CLR,CLR,0.00,WeatherDisplay:10.37,2013-06-04 04:13:00,
2013-06-03 23:18:00,59.4,44.6,30.03,ENE,68,7.1,9.2,58,0.00,CLR,CLR,0.00,WeatherDisplay:10.37,2013-06-04 04:18:00,
2013-06-03 23:23:00,59.2,43.9,30.03,ESE,112,4.3,8.1,57,0.00,CLR,CLR,0.00,WeatherDisplay:10.37,2013-06-04 04:23:00,
2013-06-03 23:28:00,59.0,43.8,30.03,ENE,68,8.8,10.4,57,0.00,CLR,CLR,0.00,WeatherDisplay:10.37,2013-06-04 04:28:00,
2013-06-03 23:34:00,58.8,43.6,30.03,ENE,68,4.5,10.4,57,0.00,CLR,CLR,0.00,WeatherDisplay:10.37,2013-06-04 04:34:00,
2013-06-03 23:39:00,58.6,43.4,30.03,ESE,112,7.5,8.1,57,0.00,CLR,CLR,0.00,WeatherDisplay:10.37,2013-06-04 04:39:00,
2013-06-03 23:44:00,58.6,43.4,30.03,ESE,112,5.1,8.1,57,0.00,CLR,CLR,0.00,WeatherDisplay:10.37,2013-06-04 04:44:00,
2013-06-03 23:49:00,58.6,43.4,30.02,ESE,112,6.8,9.2,57,0.00,CLR,CLR,0.00,WeatherDisplay:10.37,2013-06-04 04:49:00,
2013-06-03 23:54:00,58.6,43.0,30.02,East,90,6.2,8.1,56,0.00,CLR,CLR,0.00,WeatherDisplay:10.37,2013-06-04 04:54:00,
2013-06-03 23:59:00,58.6,43.0,30.02,ESE,112,7.2,9.2,56,0.00,CLR,CLR,0.00,WeatherDisplay:10.37,2013-06-04 04:59:00,